createdAt,value
2023-01-07T00:01:26.656Z,3.70
2023-01-07T00:03:54.736Z,4.30
2023-01-07T00:06:24.389Z,5.10
2023-01-07T00:08:52.825Z,4.03
2023-01-07T00:11:25.608Z,4.10
2023-01-07T00:13:53.848Z,4.70
2023-01-07T00:16:23.574Z,4.10
2023-01-07T00:18:54.922Z,4.83
2023-01-07T00:21:23.364Z,4.67
2023-01-07T00:23:55.255Z,5.43
2023-01-07T00:26:23.562Z,5.90
2023-01-07T00:28:52.039Z,6.17
2023-01-07T00:31:21.170Z,5.73
2023-01-07T00:33:54.155Z,5.17
2023-01-07T00:36:28.961Z,5.70
2023-01-07T00:39:05.413Z,6.13
2023-01-07T00:41:32.569Z,6.30
2023-01-07T00:43:59.390Z,7.57
2023-01-07T00:46:26.654Z,6.57
2023-01-07T00:48:53.799Z,7.00
2023-01-07T00:51:20.684Z,7.17
2023-01-07T00:53:47.450Z,18.70
2023-01-07T00:56:16.169Z,9.30
2023-01-07T00:58:43.012Z,6.67
2023-01-07T01:01:11.308Z,8.30
2023-01-07T01:03:38.712Z,7.40
2023-01-07T01:06:16.120Z,6.97
2023-01-07T01:08:44.367Z,7.77
2023-01-07T01:11:12.928Z,7.60
2023-01-07T01:13:40.193Z,6.90
2023-01-07T01:16:12.601Z,7.90
2023-01-07T01:18:39.649Z,7.87
2023-01-07T01:21:07.987Z,7.80
2023-01-07T01:23:35.065Z,8.43
2023-01-07T01:26:10.797Z,7.33
2023-01-07T01:28:38.219Z,7.80
2023-01-07T01:31:06.233Z,9.17
2023-01-07T01:33:33.264Z,7.90
2023-01-07T01:36:03.937Z,8.60
2023-01-07T01:38:30.906Z,8.43
2023-01-07T01:40:57.593Z,9.07
2023-01-07T01:43:30.210Z,9.47
2023-01-07T01:46:01.036Z,7.60
2023-01-07T01:48:28.489Z,8.10
2023-01-07T01:50:55.533Z,8.70
2023-01-07T01:53:28.441Z,8.90
2023-01-07T01:56:09.054Z,8.47
2023-01-07T01:58:40.918Z,8.73
2023-01-07T02:01:08.026Z,9.10
2023-01-07T02:03:37.356Z,10.13
2023-01-07T02:06:05.192Z,9.93
2023-01-07T02:08:31.998Z,10.50
2023-01-07T02:11:22.107Z,10.20
2023-01-07T02:14:07.695Z,9.77
2023-01-07T02:16:44.336Z,11.50
2023-01-07T02:19:27.706Z,10.77
2023-01-07T02:22:07.927Z,12.63
2023-01-07T02:24:52.243Z,12.03
2023-01-07T02:27:47.205Z,13.30
2023-01-07T02:30:35.841Z,11.40
2023-01-07T02:33:14.983Z,14.20
2023-01-07T02:35:56.191Z,13.70
2023-01-07T02:38:55.906Z,14.30
2023-01-07T02:41:57.833Z,14.03
2023-01-07T02:44:50.175Z,14.20
2023-01-07T02:47:37.562Z,13.43
2023-01-07T02:50:07.589Z,13.23
2023-01-07T02:52:35.686Z,15.07
2023-01-07T02:55:11.263Z,15.90
2023-01-07T02:58:10.074Z,14.53
2023-01-07T03:00:51.731Z,15.37
2023-01-07T03:03:42.206Z,16.37
2023-01-07T03:06:22.252Z,14.87
2023-01-07T03:09:11.707Z,17.27
2023-01-07T03:11:59.079Z,16.37
2023-01-07T03:14:49.628Z,16.73
2023-01-07T03:17:21.344Z,17.50
2023-01-07T03:19:52.669Z,19.10
2023-01-07T03:22:22.302Z,17.20
2023-01-07T03:24:51.245Z,18.47
2023-01-07T03:27:22.981Z,17.73
2023-01-07T03:29:52.053Z,18.57
2023-01-07T03:32:30.219Z,18.27
2023-01-07T03:34:57.473Z,18.43
2023-01-07T03:37:27.039Z,19.50
2023-01-07T03:39:54.118Z,18.90
2023-01-07T03:42:40.676Z,19.13
2023-01-07T03:45:10.637Z,18.90
2023-01-07T03:47:38.892Z,16.60
2023-01-07T03:50:06.063Z,18.37
2023-01-07T03:52:32.791Z,17.43
2023-01-07T03:54:59.603Z,17.60
2023-01-07T03:57:26.277Z,18.67
2023-01-07T03:59:52.906Z,20.07
2023-01-07T04:02:19.512Z,18.00
2023-01-07T04:04:46.183Z,19.30
2023-01-07T04:07:13.706Z,17.47
2023-01-07T04:09:40.603Z,19.60
2023-01-07T04:12:07.563Z,18.20
2023-01-07T04:14:34.202Z,18.30
2023-01-07T04:17:00.867Z,17.47
2023-01-07T04:19:27.478Z,17.57
2023-01-07T04:21:54.053Z,18.30
2023-01-07T04:24:20.709Z,18.43
2023-01-07T04:26:47.353Z,18.67
2023-01-07T04:29:14.134Z,18.90
2023-01-07T04:31:41.819Z,18.13
2023-01-07T04:34:09.605Z,18.57
2023-01-07T04:36:36.193Z,20.13
2023-01-07T04:39:02.867Z,21.60
2023-01-07T04:41:29.491Z,18.53
2023-01-07T04:43:56.128Z,19.00
2023-01-07T04:46:22.874Z,18.70
2023-01-07T04:48:49.509Z,19.00
2023-01-07T04:51:16.100Z,19.90
2023-01-07T04:53:42.759Z,19.70
2023-01-07T04:56:09.351Z,19.90
2023-01-07T04:58:36.025Z,17.87
2023-01-07T05:01:06.861Z,19.60
2023-01-07T05:03:34.584Z,19.37
2023-01-07T05:06:01.475Z,19.50
2023-01-07T05:08:28.148Z,19.80
2023-01-07T05:10:54.791Z,20.40
2023-01-07T05:13:23.188Z,18.20
2023-01-07T05:15:50.163Z,19.30
2023-01-07T05:18:17.158Z,17.67
2023-01-07T05:20:43.929Z,19.40
2023-01-07T05:23:10.564Z,19.33
2023-01-07T05:25:37.281Z,17.83
2023-01-07T05:28:04.085Z,20.50
2023-01-07T05:30:30.824Z,19.50
2023-01-07T05:32:57.517Z,20.27
2023-01-07T05:35:24.164Z,21.37
2023-01-07T05:37:50.788Z,19.30
2023-01-07T05:40:17.578Z,19.87
2023-01-07T05:42:44.231Z,20.00
2023-01-07T05:45:11.361Z,18.87
2023-01-07T05:47:37.996Z,20.47
2023-01-07T05:50:05.171Z,18.83
2023-01-07T05:52:31.762Z,20.60
2023-01-07T05:54:58.366Z,18.97
2023-01-07T05:57:24.963Z,20.03
2023-01-07T05:59:51.574Z,17.50
2023-01-07T06:02:18.170Z,19.60
2023-01-07T06:04:44.862Z,17.97
2023-01-07T06:07:11.467Z,17.93
2023-01-07T06:09:38.091Z,18.60
2023-01-07T06:12:04.977Z,19.20
2023-01-07T06:14:31.620Z,20.10
2023-01-07T06:16:58.265Z,19.63
2023-01-07T06:19:26.375Z,19.23
2023-01-07T06:21:52.969Z,20.07
2023-01-07T06:24:19.592Z,19.60
2023-01-07T06:26:46.203Z,21.90
2023-01-07T06:29:12.831Z,21.00
2023-01-07T06:31:39.519Z,21.47
2023-01-07T06:34:06.147Z,20.00
2023-01-07T06:36:32.795Z,19.57
2023-01-07T06:38:59.456Z,20.10
2023-01-07T06:41:26.156Z,18.33
2023-01-07T06:43:52.812Z,20.80
2023-01-07T06:46:19.735Z,20.43
2023-01-07T06:48:46.787Z,21.53
2023-01-07T06:51:13.418Z,21.10
2023-01-07T06:53:40.023Z,19.10
2023-01-07T06:56:06.778Z,21.97
2023-01-07T06:58:33.372Z,21.97
2023-01-07T07:01:07.687Z,19.53
2023-01-07T07:03:34.387Z,21.40
2023-01-07T07:06:01.161Z,20.60
2023-01-07T07:08:27.932Z,20.90
2023-01-07T07:10:54.551Z,21.60
2023-01-07T07:13:21.279Z,22.30
2023-01-07T07:15:49.652Z,19.50
2023-01-07T07:18:17.572Z,23.60
2023-01-07T07:20:46.472Z,18.60
2023-01-07T07:23:13.368Z,20.77
2023-01-07T07:25:40.127Z,19.43
2023-01-07T07:28:06.825Z,22.43
2023-01-07T07:30:45.654Z,20.43
2023-01-07T07:33:14.840Z,21.57
2023-01-07T07:35:41.636Z,20.23
2023-01-07T07:38:08.229Z,20.70
2023-01-07T07:40:34.828Z,22.27
2023-01-07T07:43:11.240Z,22.33
2023-01-07T07:45:42.541Z,22.20
2023-01-07T07:48:12.036Z,20.90
2023-01-07T07:50:38.825Z,22.77
2023-01-07T07:53:05.709Z,23.67
2023-01-07T07:55:32.302Z,23.40
2023-01-07T07:57:58.894Z,23.37
2023-01-07T08:00:25.735Z,24.10
2023-01-07T08:02:52.453Z,25.13
2023-01-07T08:05:19.108Z,26.30
2023-01-07T08:07:45.702Z,22.23
2023-01-07T08:10:12.355Z,23.07
2023-01-07T08:12:39.680Z,22.53
2023-01-07T08:15:07.610Z,24.50
2023-01-07T08:17:36.169Z,25.10
2023-01-07T08:20:07.380Z,25.00
2023-01-07T08:22:34.503Z,24.70
2023-01-07T08:25:01.657Z,24.00
2023-01-07T08:27:28.780Z,23.27
2023-01-07T08:29:56.713Z,25.60
2023-01-07T08:32:23.546Z,26.07
2023-01-07T08:34:50.298Z,25.00
2023-01-07T08:37:17.101Z,23.37
2023-01-07T08:39:43.867Z,23.00
2023-01-07T08:42:10.509Z,21.40
2023-01-07T08:44:37.180Z,22.90
2023-01-07T08:47:03.849Z,24.60
2023-01-07T08:49:30.435Z,23.17
2023-01-07T08:51:57.114Z,20.90
2023-01-07T08:54:23.785Z,22.10
2023-01-07T08:56:50.426Z,24.43
2023-01-07T08:59:16.987Z,22.97
2023-01-07T09:01:43.867Z,22.63
2023-01-07T09:04:10.566Z,22.17
2023-01-07T09:06:37.225Z,23.00
2023-01-07T09:09:04.042Z,20.60
2023-01-07T09:11:30.704Z,21.17
2023-01-07T09:13:57.306Z,22.00
2023-01-07T09:16:24.000Z,18.73
2023-01-07T09:18:50.903Z,17.90
2023-01-07T09:21:17.535Z,19.37
2023-01-07T09:23:44.124Z,16.40
2023-01-07T09:26:10.761Z,15.23
2023-01-07T09:28:37.340Z,15.40
2023-01-07T09:31:04.376Z,11.83
2023-01-07T09:33:31.418Z,14.13
2023-01-07T09:35:58.063Z,13.57
2023-01-07T09:38:24.696Z,12.03
2023-01-07T09:40:51.830Z,11.67
2023-01-07T09:44:00.566Z,10.97
2023-01-07T09:46:29.177Z,8.73
2023-01-07T09:49:00.447Z,8.63
2023-01-07T09:51:37.167Z,9.33
2023-01-07T09:54:07.230Z,7.77
2023-01-07T09:56:36.332Z,7.83
2023-01-07T09:59:05.393Z,7.77
2023-01-07T10:01:43.642Z,5.57
2023-01-07T10:04:32.148Z,4.77
2023-01-07T10:07:23.707Z,5.40
2023-01-07T10:09:55.820Z,4.60
2023-01-07T10:12:33.141Z,3.63
2023-01-07T10:15:08.741Z,3.40
2023-01-07T10:17:45.844Z,3.77
2023-01-07T10:20:12.464Z,2.60
2023-01-07T10:22:53.646Z,3.17
2023-01-07T10:25:28.574Z,3.27
2023-01-07T10:27:58.822Z,2.87
2023-01-07T10:30:29.557Z,2.47
2023-01-07T10:33:10.870Z,2.77
2023-01-07T10:35:40.966Z,2.50
2023-01-07T10:38:15.031Z,2.70
2023-01-07T10:40:55.145Z,2.03
2023-01-07T10:43:27.761Z,2.13
2023-01-07T10:46:00.239Z,1.97
2023-01-07T10:48:58.661Z,2.10
2023-01-07T10:51:42.862Z,1.67
2023-01-07T10:54:24.496Z,1.53
2023-01-07T10:56:58.110Z,1.90
2023-01-07T10:59:25.593Z,1.50
2023-01-07T11:01:56.375Z,1.87
2023-01-07T11:04:23.341Z,1.87
2023-01-07T11:07:14.432Z,1.40
2023-01-07T11:09:43.883Z,1.40
2023-01-07T11:12:30.115Z,1.70
2023-01-07T11:14:59.663Z,2.10
2023-01-07T11:17:40.774Z,1.70
2023-01-07T11:20:08.118Z,1.67
2023-01-07T11:22:37.369Z,1.87
2023-01-07T11:25:24.201Z,1.87
2023-01-07T11:27:50.927Z,1.67
2023-01-07T11:30:25.962Z,1.70
2023-01-07T11:33:00.011Z,1.40
2023-01-07T11:35:30.064Z,1.70
2023-01-07T11:37:58.399Z,1.40
2023-01-07T11:40:31.810Z,1.47
2023-01-07T11:42:59.920Z,1.77
2023-01-07T11:46:20.053Z,1.50
2023-01-07T11:48:36.422Z,1.43
2023-01-07T11:51:10.622Z,1.50
2023-01-07T11:53:45.977Z,1.10
2023-01-07T11:56:12.588Z,1.13
2023-01-07T11:58:47.469Z,1.27
2023-01-07T12:01:16.198Z,1.20
2023-01-07T12:03:44.664Z,1.07
2023-01-07T12:06:11.273Z,1.13
2023-01-07T12:08:41.893Z,0.87
2023-01-07T12:11:11.248Z,1.80
2023-01-07T12:13:41.604Z,1.43
2023-01-07T12:16:09.215Z,1.13
2023-01-07T12:18:45.030Z,0.90
2023-01-07T12:21:32.837Z,1.07
2023-01-07T12:24:19.447Z,1.37
2023-01-07T12:27:21.858Z,1.50
2023-01-07T12:30:00.422Z,0.90
2023-01-07T12:32:48.520Z,1.00
2023-01-07T12:35:24.606Z,1.50
2023-01-07T12:37:58.706Z,1.23
2023-01-07T12:40:31.819Z,1.30
2023-01-07T12:43:25.724Z,1.10
2023-01-07T12:46:07.151Z,1.50
2023-01-07T12:48:53.573Z,2.00
2023-01-07T12:51:25.181Z,3.33
2023-01-07T12:53:59.937Z,1.40
2023-01-07T12:56:39.338Z,1.77
2023-01-07T12:59:45.634Z,1.97
2023-01-07T13:02:28.913Z,1.17
2023-01-07T13:05:14.176Z,2.03
2023-01-07T13:07:52.112Z,1.90
2023-01-07T13:10:36.168Z,1.40
2023-01-07T13:13:14.829Z,1.50
2023-01-07T13:15:41.974Z,1.83
2023-01-07T13:18:11.455Z,1.80
2023-01-07T13:21:07.847Z,2.40
2023-01-07T13:23:59.468Z,1.50
2023-01-07T13:27:01.873Z,1.60
2023-01-07T13:29:51.444Z,4.57
2023-01-07T13:32:59.304Z,4.20
2023-01-07T13:35:48.566Z,3.20
2023-01-07T13:38:26.964Z,5.20
2023-01-07T13:41:05.735Z,2.40
2023-01-07T13:43:51.200Z,2.90
2023-01-07T13:46:21.249Z,2.07
2023-01-07T13:48:53.839Z,1.70
2023-01-07T13:51:36.520Z,2.37
2023-01-07T13:54:03.822Z,2.13
2023-01-07T13:56:38.511Z,1.70
2023-01-07T13:59:25.245Z,3.80
2023-01-07T14:02:47.183Z,2.43
2023-01-07T14:05:13.733Z,1.90
2023-01-07T14:07:48.656Z,2.10
2023-01-07T14:10:29.326Z,2.20
2023-01-07T14:13:33.540Z,1.63
2023-01-07T14:16:21.078Z,1.63
2023-01-07T14:19:10.805Z,2.07
2023-01-07T14:21:44.345Z,1.83
2023-01-07T14:24:19.886Z,1.47
2023-01-07T14:27:04.221Z,2.00
2023-01-07T14:29:54.290Z,1.80
2023-01-07T14:32:29.023Z,1.83
2023-01-07T14:35:19.673Z,1.60
2023-01-07T14:37:47.029Z,1.67
2023-01-07T14:40:29.257Z,2.00
2023-01-07T14:43:34.278Z,2.10
2023-01-07T14:46:00.982Z,1.93
2023-01-07T14:48:32.580Z,2.37
2023-01-07T14:51:25.708Z,2.03
2023-01-07T14:54:12.381Z,1.90
2023-01-07T14:57:14.020Z,1.80
2023-01-07T15:00:18.178Z,1.80
2023-01-07T15:03:18.153Z,2.40
2023-01-07T15:06:05.622Z,1.43
2023-01-07T15:09:12.849Z,6.93
2023-01-07T15:12:01.150Z,5.60
2023-01-07T15:15:07.552Z,2.00
2023-01-07T15:17:34.458Z,2.77
2023-01-07T15:20:05.657Z,1.70
2023-01-07T15:22:38.456Z,1.37
2023-01-07T15:25:19.893Z,1.70
2023-01-07T15:28:11.873Z,1.20
2023-01-07T15:30:49.605Z,1.53
2023-01-07T15:33:50.645Z,3.17
2023-01-07T15:36:17.594Z,2.60
2023-01-07T15:38:52.852Z,1.50
2023-01-07T15:41:24.715Z,1.60
2023-01-07T15:43:52.111Z,1.27
2023-01-07T15:46:21.091Z,1.70
2023-01-07T15:49:04.626Z,1.63
2023-01-07T15:51:32.537Z,1.50
2023-01-07T15:53:59.182Z,1.40
2023-01-07T15:56:25.845Z,1.20
2023-01-07T15:58:52.561Z,1.80
2023-01-07T16:01:22.024Z,1.63
2023-01-07T16:03:51.446Z,1.50
2023-01-07T16:06:34.552Z,1.37
2023-01-07T16:09:21.853Z,1.27
2023-01-07T16:11:48.655Z,1.60
2023-01-07T16:14:17.224Z,2.00
2023-01-07T16:16:43.933Z,2.20
2023-01-07T16:19:19.536Z,1.13
2023-01-07T16:21:51.431Z,1.30
2023-01-07T16:24:18.661Z,2.70
2023-01-07T16:27:04.823Z,1.73
2023-01-07T16:29:36.956Z,1.60
2023-01-07T16:32:06.976Z,1.57
2023-01-07T16:34:33.519Z,1.73
2023-01-07T16:37:02.187Z,1.93
2023-01-07T16:39:35.265Z,1.73
2023-01-07T16:42:20.422Z,1.37
2023-01-07T16:44:49.384Z,1.60
2023-01-07T16:47:22.838Z,1.80
2023-01-07T16:49:51.262Z,1.80
2023-01-07T16:52:19.952Z,1.47
2023-01-07T16:54:50.471Z,1.30
2023-01-07T16:57:41.513Z,1.77
2023-01-07T17:00:19.118Z,1.50
2023-01-07T17:02:56.624Z,1.50
2023-01-07T17:05:26.481Z,1.77
2023-01-07T17:08:00.043Z,1.90
2023-01-07T17:10:35.638Z,1.77
2023-01-07T17:13:23.678Z,1.90
2023-01-07T17:15:50.381Z,1.70
2023-01-07T17:18:16.962Z,1.30
2023-01-07T17:20:43.561Z,1.90
2023-01-07T17:23:27.795Z,1.60
2023-01-07T17:26:05.596Z,1.37
2023-01-07T17:28:36.040Z,1.37
2023-01-07T17:31:03.515Z,1.20
2023-01-07T17:33:30.286Z,1.30
2023-01-07T17:35:57.567Z,1.57
2023-01-07T17:38:24.365Z,1.50
2023-01-07T17:40:52.005Z,1.70
2023-01-07T17:43:33.759Z,1.53
2023-01-07T17:46:01.292Z,1.40
2023-01-07T17:48:28.234Z,1.27
2023-01-07T17:50:57.093Z,1.10
2023-01-07T17:53:27.459Z,86.97
2023-01-07T17:55:54.409Z,11.23
2023-01-07T17:58:35.353Z,2.57
2023-01-07T18:01:06.686Z,1.50
2023-01-07T18:03:33.449Z,1.13
2023-01-07T18:06:00.110Z,1.50
2023-01-07T18:08:26.732Z,1.53
2023-01-07T18:11:13.270Z,3.67
2023-01-07T18:13:41.019Z,1.43
2023-01-07T18:16:12.175Z,1.47
2023-01-07T18:18:38.910Z,1.60
2023-01-07T18:21:05.678Z,2.10
2023-01-07T18:23:32.363Z,1.17
2023-01-07T18:25:59.023Z,1.60
2023-01-07T18:28:25.672Z,1.23
2023-01-07T18:30:52.320Z,2.00
2023-01-07T18:33:18.966Z,1.40
2023-01-07T18:35:47.903Z,1.60
2023-01-07T18:38:15.877Z,3.13
2023-01-07T18:40:43.423Z,22.57
2023-01-07T18:43:15.011Z,4.00
2023-01-07T18:45:43.247Z,2.03
2023-01-07T18:48:10.683Z,1.90
2023-01-07T18:50:41.807Z,10.70
2023-01-07T18:53:09.559Z,2.77
2023-01-07T18:55:38.044Z,2.53
2023-01-07T18:58:05.270Z,2.53
2023-01-07T19:00:31.943Z,1.87
2023-01-07T19:02:59.141Z,1.40
2023-01-07T19:05:27.424Z,1.77
2023-01-07T19:07:55.346Z,2.17
2023-01-07T19:10:26.031Z,2.40
2023-01-07T19:12:53.033Z,2.37
2023-01-07T19:15:19.737Z,10.77
2023-01-07T19:17:46.350Z,9.47
2023-01-07T19:20:15.190Z,3.97
2023-01-07T19:22:42.017Z,2.20
2023-01-07T19:25:09.423Z,2.40
2023-01-07T19:27:36.110Z,2.10
2023-01-07T19:30:02.759Z,2.10
2023-01-07T19:32:30.358Z,1.77
2023-01-07T19:34:57.024Z,1.63
2023-01-07T19:37:23.930Z,1.73
2023-01-07T19:39:50.529Z,1.77
2023-01-07T19:42:17.175Z,1.80
2023-01-07T19:44:43.727Z,1.83
2023-01-07T19:47:10.384Z,2.33
2023-01-07T19:49:37.080Z,1.57
2023-01-07T19:52:03.933Z,1.77
2023-01-07T19:54:30.518Z,2.30
2023-01-07T19:56:57.118Z,18.23
2023-01-07T19:59:24.859Z,4.30
2023-01-07T20:01:53.579Z,1.93
2023-01-07T20:04:20.449Z,2.00
2023-01-07T20:06:47.766Z,1.40
2023-01-07T20:09:14.449Z,1.60
2023-01-07T20:11:42.935Z,1.43
2023-01-07T20:14:11.867Z,1.90
2023-01-07T20:16:39.619Z,1.33
2023-01-07T20:19:06.663Z,1.57
2023-01-07T20:21:33.502Z,1.77
2023-01-07T20:24:00.204Z,1.60
2023-01-07T20:26:29.510Z,1.60
2023-01-07T20:28:57.618Z,1.80
2023-01-07T20:31:27.656Z,1.47
2023-01-07T20:33:57.576Z,1.70
2023-01-07T20:36:27.752Z,1.93
2023-01-07T20:38:54.485Z,1.30
2023-01-07T20:41:26.038Z,1.70
2023-01-07T20:43:58.484Z,1.33
2023-01-07T20:46:27.086Z,2.27
2023-01-07T20:48:54.277Z,1.40
2023-01-07T20:51:21.209Z,1.10
2023-01-07T20:53:48.110Z,1.67
2023-01-07T20:56:22.549Z,1.13
2023-01-07T20:58:49.587Z,1.40
2023-01-07T21:01:19.190Z,1.93
2023-01-07T21:03:46.319Z,4.20
2023-01-07T21:06:15.326Z,2.50
2023-01-07T21:08:42.026Z,1.73
2023-01-07T21:11:13.914Z,3.80
2023-01-07T21:13:40.868Z,8.60
2023-01-07T21:16:07.675Z,2.23
2023-01-07T21:18:34.644Z,2.70
2023-01-07T21:21:07.628Z,2.07
2023-01-07T21:23:34.591Z,2.40
2023-01-07T21:26:01.211Z,6.57
2023-01-07T21:28:27.804Z,2.50
2023-01-07T21:30:54.391Z,2.63
2023-01-07T21:33:20.996Z,2.33
2023-01-07T21:35:47.720Z,3.03
2023-01-07T21:38:14.839Z,2.70
2023-01-07T21:40:41.465Z,3.80
2023-01-07T21:43:08.085Z,4.77
2023-01-07T21:45:34.764Z,2.40
2023-01-07T21:48:01.398Z,3.90
2023-01-07T21:50:28.077Z,2.20
2023-01-07T21:52:54.700Z,1.97
2023-01-07T21:55:21.379Z,1.97
2023-01-07T21:57:47.980Z,2.10
2023-01-07T22:00:15.229Z,1.80
2023-01-07T22:02:41.833Z,2.10
2023-01-07T22:05:08.971Z,1.80
2023-01-07T22:07:35.676Z,1.83
2023-01-07T22:10:02.452Z,2.50
2023-01-07T22:12:29.175Z,2.17
2023-01-07T22:14:55.807Z,1.57
2023-01-07T22:17:24.012Z,2.10
2023-01-07T22:19:50.702Z,1.80
2023-01-07T22:22:19.323Z,2.13
2023-01-07T22:24:45.927Z,1.50
2023-01-07T22:27:12.666Z,1.90
2023-01-07T22:29:39.368Z,1.30
2023-01-07T22:32:05.990Z,1.50
2023-01-07T22:34:32.578Z,1.27
2023-01-07T22:37:14.781Z,2.00
2023-01-07T22:40:00.010Z,2.00
2023-01-07T22:42:38.962Z,1.90
2023-01-07T22:45:11.359Z,1.90
2023-01-07T22:47:42.578Z,1.67
2023-01-07T22:50:09.787Z,1.93
2023-01-07T22:52:37.808Z,1.57
2023-01-07T22:55:05.095Z,2.03
2023-01-07T22:57:33.305Z,1.87
2023-01-07T23:00:00.616Z,2.37
2023-01-07T23:02:28.245Z,2.30
2023-01-07T23:04:54.889Z,2.57
2023-01-07T23:07:21.509Z,1.77
2023-01-07T23:09:50.136Z,1.70
2023-01-07T23:12:17.438Z,2.50
2023-01-07T23:14:44.059Z,2.57
2023-01-07T23:17:11.388Z,1.57
2023-01-07T23:19:37.987Z,2.57
2023-01-07T23:22:05.072Z,1.93
2023-01-07T23:24:31.668Z,1.93
2023-01-07T23:26:58.321Z,2.20
2023-01-07T23:29:25.031Z,5.83
2023-01-07T23:31:51.819Z,3.93
2023-01-07T23:34:19.529Z,3.97
2023-01-07T23:36:46.223Z,2.93
2023-01-07T23:39:13.068Z,3.03
2023-01-07T23:41:39.760Z,2.50
2023-01-07T23:44:06.395Z,3.00
2023-01-07T23:46:33.113Z,2.17
2023-01-07T23:48:59.709Z,2.00
2023-01-07T23:51:26.295Z,2.33
2023-01-07T23:53:53.234Z,2.17
2023-01-07T23:56:21.037Z,2.30
2023-01-07T23:58:48.805Z,2.23
